AAL997 KCLT-KDCA
Flight info
| Callsign | AAL997 |
|---|---|
| Flight time | 0h 59m |
| Altitude | 37000 |
| Route | KILNS5 AUDII DCT WAVES CAPSS4 |
| Aircraft | B738/M-SDE2E3FGHIRWXY/LB1 |
Departure
| Time | 2026-04-20 23:57 |
|---|---|
| Airport | Charlotte Douglas International Airport (KCLT) |
Arrival
| Time | 2026-04-21 00:57 |
|---|---|
| Airport | Ronald Reagan Washington National Airport (KDCA) |
| Time | Latitude | Longitude | Altitude | Speed | Heading |
|---|---|---|---|---|---|
| 2026-04-20 23:36 | 35.21972 | -80.94221 | 742 ft | 0 kts | 296° |
| 2026-04-20 23:45 | 35.21966 | -80.94207 | 741 ft | 2 kts | 296° |
| 2026-04-20 23:45 | 35.21959 | -80.94189 | 739 ft | 2 kts | 297° |
| 2026-04-20 23:45 | 35.21952 | -80.94171 | 742 ft | 2 kts | 297° |
| 2026-04-20 23:45 | 35.21944 | -80.94153 | 738 ft | 2 kts | 297° |
| 2026-04-20 23:46 | 35.21937 | -80.94135 | 738 ft | 2 kts | 297° |
| 2026-04-20 23:46 | 35.21929 | -80.94117 | 740 ft | 2 kts | 298° |
| 2026-04-20 23:46 | 35.21921 | -80.94100 | 739 ft | 2 kts | 298° |
| 2026-04-20 23:46 | 35.21919 | -80.94093 | 739 ft | 0 kts | 298° |
| 2026-04-20 23:50 | 35.21919 | -80.94094 | 739 ft | 0 kts | 292° |
| 2026-04-20 23:50 | 35.21918 | -80.94099 | 739 ft | 0 kts | 262° |
| 2026-04-20 23:50 | 35.21914 | -80.94101 | 740 ft | 0 kts | 218° |
| 2026-04-20 23:50 | 35.21907 | -80.94101 | 741 ft | 2 kts | 183° |
| 2026-04-20 23:51 | 35.21888 | -80.94096 | 742 ft | 4 kts | 156° |
| 2026-04-20 23:51 | 35.21854 | -80.94074 | 741 ft | 8 kts | 152° |
| 2026-04-20 23:51 | 35.21815 | -80.94018 | 740 ft | 10 kts | 119° |
| 2026-04-20 23:51 | 35.21767 | -80.93938 | 741 ft | 13 kts | 135° |
| 2026-04-20 23:52 | 35.21696 | -80.93851 | 742 ft | 15 kts | 135° |
| 2026-04-20 23:52 | 35.21618 | -80.93753 | 742 ft | 17 kts | 130° |
| 2026-04-20 23:52 | 35.21528 | -80.93669 | 743 ft | 16 kts | 169° |
| 2026-04-20 23:52 | 35.21424 | -80.93658 | 743 ft | 14 kts | 178° |
| 2026-04-20 23:53 | 35.21332 | -80.93652 | 742 ft | 13 kts | 177° |
| 2026-04-20 23:53 | 35.21249 | -80.93646 | 741 ft | 12 kts | 175° |
| 2026-04-20 23:53 | 35.21172 | -80.93639 | 741 ft | 11 kts | 175° |
| 2026-04-20 23:53 | 35.21099 | -80.93632 | 740 ft | 11 kts | 175° |
| 2026-04-20 23:54 | 35.21017 | -80.93623 | 740 ft | 13 kts | 175° |
| 2026-04-20 23:54 | 35.20920 | -80.93614 | 739 ft | 15 kts | 176° |
| 2026-04-20 23:54 | 35.20808 | -80.93604 | 738 ft | 17 kts | 176° |
| 2026-04-20 23:54 | 35.20684 | -80.93598 | 736 ft | 18 kts | 174° |
| 2026-04-20 23:55 | 35.20551 | -80.93583 | 735 ft | 20 kts | 176° |
| 2026-04-20 23:55 | 35.20408 | -80.93570 | 734 ft | 21 kts | 176° |
| 2026-04-20 23:55 | 35.20257 | -80.93559 | 733 ft | 22 kts | 176° |
| 2026-04-20 23:55 | 35.20134 | -80.93543 | 731 ft | 10 kts | 158° |
| 2026-04-20 23:56 | 35.20110 | -80.93501 | 730 ft | 10 kts | 101° |
| 2026-04-20 23:56 | 35.20115 | -80.93422 | 731 ft | 0 kts | 61° |
| 2026-04-20 23:56 | 35.20119 | -80.93418 | 731 ft | 3 kts | 44° |
| 2026-04-20 23:56 | 35.20141 | -80.93417 | 731 ft | 7 kts | 353° |
| 2026-04-20 23:57 | 35.20378 | -80.93442 | 736 ft | 74 kts | 355° |
| 2026-04-20 23:57 | 35.21159 | -80.93511 | 741 ft | 149 kts | 356° |
| 2026-04-20 23:57 | 35.22409 | -80.93615 | 831 ft | 206 kts | 353° |
| 2026-04-20 23:57 | 35.23898 | -80.93710 | 1516 ft | 219 kts | 1° |
| 2026-04-20 23:58 | 35.25391 | -80.93280 | 2543 ft | 223 kts | 18° |
| 2026-04-20 23:58 | 35.26902 | -80.92672 | 3318 ft | 233 kts | 12° |
| 2026-04-20 23:58 | 35.28499 | -80.92186 | 3955 ft | 244 kts | 11° |
| 2026-04-20 23:58 | 35.30204 | -80.91680 | 4512 ft | 256 kts | 11° |
| 2026-04-20 23:59 | 35.31936 | -80.91178 | 5333 ft | 259 kts | 10° |
| 2026-04-20 23:59 | 35.33719 | -80.90692 | 6076 ft | 263 kts | 8° |
| 2026-04-20 23:59 | 35.35519 | -80.90241 | 6878 ft | 266 kts | 9° |
| 2026-04-20 23:59 | 35.37222 | -80.89262 | 7513 ft | 282 kts | 39° |
| 2026-04-21 00:00 | 35.38339 | -80.87234 | 8021 ft | 295 kts | 66° |
| 2026-04-21 00:00 | 35.38674 | -80.84747 | 8038 ft | 298 kts | 90° |
| 2026-04-21 00:00 | 35.38411 | -80.82212 | 8011 ft | 302 kts | 100° |
| 2026-04-21 00:00 | 35.37986 | -80.79699 | 8035 ft | 302 kts | 101° |
| 2026-04-21 00:01 | 35.37544 | -80.77177 | 8015 ft | 303 kts | 101° |
| 2026-04-21 00:01 | 35.37109 | -80.74652 | 8020 ft | 303 kts | 101° |
| 2026-04-21 00:01 | 35.36681 | -80.72107 | 8198 ft | 308 kts | 101° |
| 2026-04-21 00:01 | 35.36258 | -80.69534 | 9000 ft | 307 kts | 101° |
| 2026-04-21 00:02 | 35.35839 | -80.66959 | 9772 ft | 310 kts | 101° |
| 2026-04-21 00:02 | 35.35415 | -80.64336 | 10353 ft | 320 kts | 101° |
| 2026-04-21 00:02 | 35.34967 | -80.61559 | 10497 ft | 345 kts | 101° |
| 2026-04-21 00:02 | 35.34491 | -80.58593 | 10690 ft | 365 kts | 101° |
| 2026-04-21 00:03 | 35.33985 | -80.55453 | 10906 ft | 384 kts | 101° |
| 2026-04-21 00:03 | 35.33489 | -80.52210 | 11463 ft | 390 kts | 96° |
| 2026-04-21 00:03 | 35.33405 | -80.48886 | 12115 ft | 391 kts | 83° |
| 2026-04-21 00:03 | 35.33879 | -80.45627 | 12911 ft | 387 kts | 70° |
| 2026-04-21 00:04 | 35.34788 | -80.42537 | 13636 ft | 386 kts | 64° |
| 2026-04-21 00:04 | 35.35773 | -80.39448 | 14247 ft | 392 kts | 64° |
| 2026-04-21 00:04 | 35.36753 | -80.36318 | 14803 ft | 396 kts | 65° |
| 2026-04-21 00:04 | 35.37728 | -80.33154 | 15410 ft | 398 kts | 64° |
| 2026-04-21 00:05 | 35.38703 | -80.29958 | 15981 ft | 402 kts | 64° |
| 2026-04-21 00:05 | 35.39681 | -80.26730 | 16566 ft | 405 kts | 64° |
| 2026-04-21 00:05 | 35.40662 | -80.23483 | 17162 ft | 408 kts | 64° |
| 2026-04-21 00:05 | 35.41650 | -80.20214 | 17745 ft | 411 kts | 64° |
| 2026-04-21 00:06 | 35.42646 | -80.16914 | 18296 ft | 414 kts | 64° |
| 2026-04-21 00:06 | 35.43652 | -80.13591 | 18812 ft | 417 kts | 63° |
| 2026-04-21 00:06 | 35.44674 | -80.10251 | 19311 ft | 420 kts | 63° |
| 2026-04-21 00:06 | 35.45705 | -80.06889 | 19790 ft | 422 kts | 63° |
| 2026-04-21 00:07 | 35.46743 | -80.03503 | 20227 ft | 426 kts | 62° |
| 2026-04-21 00:07 | 35.47787 | -80.00088 | 20686 ft | 429 kts | 62° |
| 2026-04-21 00:07 | 35.48835 | -79.96650 | 21170 ft | 431 kts | 62° |
| 2026-04-21 00:07 | 35.49873 | -79.93238 | 21587 ft | 434 kts | 62° |
| 2026-04-21 00:08 | 35.50933 | -79.89751 | 22011 ft | 438 kts | 62° |
| 2026-04-21 00:08 | 35.52000 | -79.86236 | 22452 ft | 440 kts | 62° |
| 2026-04-21 00:08 | 35.53072 | -79.82703 | 22884 ft | 443 kts | 62° |
| 2026-04-21 00:08 | 35.54160 | -79.79150 | 23295 ft | 446 kts | 61° |
| 2026-04-21 00:09 | 35.55273 | -79.75592 | 23699 ft | 449 kts | 60° |
| 2026-04-21 00:09 | 35.56404 | -79.72000 | 24030 ft | 451 kts | 60° |
| 2026-04-21 00:09 | 35.57551 | -79.68352 | 24410 ft | 453 kts | 60° |
| 2026-04-21 00:09 | 35.58667 | -79.64786 | 24777 ft | 454 kts | 60° |
| 2026-04-21 00:10 | 35.59815 | -79.61108 | 25142 ft | 456 kts | 60° |
| 2026-04-21 00:10 | 35.60951 | -79.57462 | 25467 ft | 458 kts | 60° |
| 2026-04-21 00:10 | 35.62074 | -79.53849 | 25783 ft | 460 kts | 60° |
| 2026-04-21 00:10 | 35.63232 | -79.50114 | 26117 ft | 462 kts | 60° |
| 2026-04-21 00:11 | 35.64378 | -79.46415 | 26441 ft | 464 kts | 60° |
| 2026-04-21 00:11 | 35.65525 | -79.42706 | 26743 ft | 466 kts | 60° |
| 2026-04-21 00:11 | 35.66664 | -79.39020 | 27027 ft | 468 kts | 60° |
| 2026-04-21 00:11 | 35.67823 | -79.35271 | 27302 ft | 470 kts | 60° |
| 2026-04-21 00:12 | 35.69005 | -79.31533 | 27594 ft | 468 kts | 57° |
| 2026-04-21 00:12 | 35.70558 | -79.28065 | 27795 ft | 456 kts | 45° |
| 2026-04-21 00:12 | 35.72543 | -79.25107 | 28178 ft | 443 kts | 36° |
| 2026-04-21 00:12 | 35.74812 | -79.22618 | 28512 ft | 431 kts | 27° |
| 2026-04-21 00:13 | 35.77250 | -79.20473 | 28781 ft | 431 kts | 26° |
| 2026-04-21 00:13 | 35.79688 | -79.18307 | 29065 ft | 433 kts | 26° |
| 2026-04-21 00:13 | 35.82118 | -79.16113 | 29432 ft | 433 kts | 27° |
| 2026-04-21 00:13 | 35.84529 | -79.13914 | 29874 ft | 430 kts | 27° |
| 2026-04-21 00:14 | 35.86921 | -79.11719 | 30330 ft | 428 kts | 27° |
| 2026-04-21 00:14 | 35.89304 | -79.09528 | 30643 ft | 427 kts | 27° |
| 2026-04-21 00:14 | 35.91691 | -79.07334 | 30832 ft | 429 kts | 27° |
| 2026-04-21 00:14 | 35.94089 | -79.05130 | 31013 ft | 431 kts | 27° |
| 2026-04-21 00:15 | 35.96486 | -79.02924 | 31316 ft | 429 kts | 27° |
| 2026-04-21 00:15 | 35.98876 | -79.00720 | 31652 ft | 428 kts | 27° |
| 2026-04-21 00:15 | 36.01261 | -78.98520 | 31874 ft | 429 kts | 26° |
| 2026-04-21 00:15 | 36.03657 | -78.96312 | 32039 ft | 431 kts | 27° |
| 2026-04-21 00:16 | 36.06057 | -78.94097 | 32288 ft | 431 kts | 27° |
| 2026-04-21 00:16 | 36.08449 | -78.91886 | 32627 ft | 429 kts | 27° |
| 2026-04-21 00:16 | 36.10834 | -78.89678 | 32919 ft | 428 kts | 26° |
| 2026-04-21 00:16 | 36.13221 | -78.87470 | 33113 ft | 429 kts | 26° |
| 2026-04-21 00:17 | 36.15618 | -78.85253 | 33270 ft | 431 kts | 27° |
| 2026-04-21 00:17 | 36.18014 | -78.83032 | 33527 ft | 430 kts | 27° |
| 2026-04-21 00:17 | 36.20403 | -78.80813 | 33836 ft | 429 kts | 27° |
| 2026-04-21 00:17 | 36.22777 | -78.78571 | 34106 ft | 429 kts | 27° |
| 2026-04-21 00:18 | 36.25137 | -78.76306 | 34279 ft | 431 kts | 28° |
| 2026-04-21 00:18 | 36.27504 | -78.74020 | 34400 ft | 432 kts | 28° |
| 2026-04-21 00:18 | 36.29877 | -78.71724 | 34561 ft | 432 kts | 28° |
| 2026-04-21 00:18 | 36.32249 | -78.69427 | 34718 ft | 433 kts | 28° |
| 2026-04-21 00:19 | 36.34626 | -78.67127 | 34853 ft | 435 kts | 28° |
| 2026-04-21 00:19 | 36.37015 | -78.64818 | 34964 ft | 436 kts | 28° |
| 2026-04-21 00:19 | 36.39411 | -78.62502 | 35117 ft | 437 kts | 28° |
| 2026-04-21 00:19 | 36.41803 | -78.60186 | 35296 ft | 436 kts | 28° |
| 2026-04-21 00:20 | 36.44200 | -78.57865 | 35441 ft | 437 kts | 28° |
| 2026-04-21 00:20 | 36.49017 | -78.53200 | 35649 ft | 440 kts | 28° |
| 2026-04-21 00:20 | 36.51431 | -78.50857 | 35833 ft | 440 kts | 28° |
| 2026-04-21 00:21 | 36.53843 | -78.48514 | 36000 ft | 440 kts | 29° |
| 2026-04-21 00:21 | 36.58684 | -78.43810 | 36140 ft | 445 kts | 29° |
| 2026-04-21 00:21 | 36.61126 | -78.41435 | 36299 ft | 445 kts | 29° |
| 2026-04-21 00:22 | 36.63555 | -78.39066 | 36515 ft | 443 kts | 29° |
| 2026-04-21 00:22 | 36.65950 | -78.36728 | 36629 ft | 444 kts | 29° |
| 2026-04-21 00:22 | 36.68390 | -78.34350 | 36630 ft | 448 kts | 29° |
| 2026-04-21 00:23 | 36.73301 | -78.29553 | 36949 ft | 447 kts | 30° |
| 2026-04-21 00:23 | 36.75736 | -78.27167 | 37148 ft | 445 kts | 30° |
| 2026-04-21 00:23 | 36.78179 | -78.24775 | 37252 ft | 447 kts | 30° |
| 2026-04-21 00:24 | 36.83080 | -78.19973 | 37318 ft | 449 kts | 30° |
| 2026-04-21 00:24 | 36.87995 | -78.15148 | 37325 ft | 450 kts | 30° |
| 2026-04-21 00:25 | 36.92919 | -78.10304 | 37256 ft | 448 kts | 30° |
| 2026-04-21 00:25 | 36.97779 | -78.05507 | 37246 ft | 442 kts | 30° |
| 2026-04-21 00:26 | 37.02580 | -78.00768 | 37211 ft | 437 kts | 30° |
| 2026-04-21 00:26 | 37.04957 | -77.98418 | 36747 ft | 434 kts | 30° |
| 2026-04-21 00:26 | 37.07329 | -77.96075 | 36110 ft | 436 kts | 29° |
| 2026-04-21 00:26 | 37.09720 | -77.93714 | 35465 ft | 439 kts | 29° |
| 2026-04-21 00:27 | 37.12121 | -77.91341 | 34852 ft | 440 kts | 29° |
| 2026-04-21 00:27 | 37.14523 | -77.88961 | 34346 ft | 440 kts | 29° |
| 2026-04-21 00:27 | 37.16915 | -77.86584 | 33809 ft | 437 kts | 29° |
| 2026-04-21 00:27 | 37.19282 | -77.84229 | 33326 ft | 433 kts | 28° |
| 2026-04-21 00:28 | 37.21618 | -77.81900 | 32918 ft | 424 kts | 28° |
| 2026-04-21 00:28 | 37.23903 | -77.79619 | 32400 ft | 417 kts | 28° |
| 2026-04-21 00:28 | 37.26160 | -77.77370 | 31769 ft | 412 kts | 28° |
| 2026-04-21 00:28 | 37.28396 | -77.75143 | 31193 ft | 408 kts | 27° |
| 2026-04-21 00:29 | 37.30596 | -77.72950 | 30723 ft | 400 kts | 27° |
| 2026-04-21 00:29 | 37.30789 | -77.72757 | 30683 ft | 399 kts | 27° |
| 2026-04-21 00:31 | 37.32001 | -77.71546 | 30437 ft | 395 kts | 27° |
| 2026-04-21 00:31 | 37.34135 | -77.69415 | 29805 ft | 389 kts | 27° |
| 2026-04-21 00:32 | 37.36250 | -77.67306 | 29023 ft | 388 kts | 27° |
| 2026-04-21 00:32 | 37.38330 | -77.65234 | 28281 ft | 386 kts | 27° |
| 2026-04-21 00:32 | 37.40421 | -77.63145 | 27671 ft | 381 kts | 27° |
| 2026-04-21 00:32 | 37.42481 | -77.61080 | 27101 ft | 376 kts | 27° |
| 2026-04-21 00:33 | 37.44516 | -77.59042 | 26467 ft | 373 kts | 27° |
| 2026-04-21 00:33 | 37.46539 | -77.57017 | 25830 ft | 371 kts | 27° |
| 2026-04-21 00:33 | 37.48546 | -77.55005 | 25234 ft | 368 kts | 27° |
| 2026-04-21 00:33 | 37.50537 | -77.53006 | 24677 ft | 364 kts | 27° |
| 2026-04-21 00:34 | 37.52508 | -77.51026 | 24123 ft | 361 kts | 27° |
| 2026-04-21 00:34 | 37.54461 | -77.49064 | 23531 ft | 358 kts | 27° |
| 2026-04-21 00:34 | 37.56394 | -77.47119 | 22915 ft | 354 kts | 27° |
| 2026-04-21 00:34 | 37.58326 | -77.45267 | 22346 ft | 341 kts | 20° |
| 2026-04-21 00:35 | 37.60435 | -77.44217 | 21948 ft | 313 kts | 4° |
| 2026-04-21 00:35 | 37.62526 | -77.43604 | 21528 ft | 311 kts | 4° |
| 2026-04-21 00:35 | 37.64624 | -77.42967 | 21304 ft | 307 kts | 5° |
| 2026-04-21 00:35 | 37.66733 | -77.42321 | 20745 ft | 311 kts | 5° |
| 2026-04-21 00:36 | 37.68824 | -77.41674 | 20294 ft | 314 kts | 5° |
| 2026-04-21 00:36 | 37.70911 | -77.41026 | 20084 ft | 307 kts | 5° |
| 2026-04-21 00:36 | 37.72994 | -77.40382 | 19737 ft | 303 kts | 5° |
| 2026-04-21 00:36 | 37.75070 | -77.39741 | 19211 ft | 309 kts | 5° |
| 2026-04-21 00:37 | 37.77142 | -77.39099 | 18790 ft | 311 kts | 5° |
| 2026-04-21 00:37 | 37.79214 | -77.38457 | 18521 ft | 304 kts | 5° |
| 2026-04-21 00:37 | 37.81267 | -77.37822 | 18141 ft | 299 kts | 5° |
| 2026-04-21 00:37 | 37.83298 | -77.37194 | 17653 ft | 301 kts | 5° |
| 2026-04-21 00:38 | 37.85347 | -77.36563 | 17018 ft | 307 kts | 6° |
| 2026-04-21 00:38 | 37.87395 | -77.35929 | 16660 ft | 304 kts | 6° |
| 2026-04-21 00:38 | 37.89441 | -77.35294 | 16332 ft | 301 kts | 6° |
| 2026-04-21 00:38 | 37.91477 | -77.34666 | 15905 ft | 301 kts | 6° |
| 2026-04-21 00:39 | 37.93501 | -77.34044 | 15540 ft | 300 kts | 6° |
| 2026-04-21 00:39 | 37.95529 | -77.33421 | 15168 ft | 299 kts | 6° |
| 2026-04-21 00:39 | 37.97555 | -77.32798 | 14796 ft | 299 kts | 6° |
| 2026-04-21 00:39 | 37.99579 | -77.32176 | 14421 ft | 300 kts | 7° |
| 2026-04-21 00:40 | 38.01603 | -77.31552 | 14053 ft | 299 kts | 7° |
| 2026-04-21 00:40 | 38.03589 | -77.30936 | 13987 ft | 282 kts | 7° |
| 2026-04-21 00:40 | 38.05366 | -77.30375 | 14151 ft | 253 kts | 6° |
| 2026-04-21 00:40 | 38.07019 | -77.29858 | 13964 ft | 235 kts | 5° |
| 2026-04-21 00:41 | 38.08548 | -77.29381 | 13773 ft | 220 kts | 5° |
| 2026-04-21 00:41 | 38.10088 | -77.28910 | 12763 ft | 240 kts | 6° |
| 2026-04-21 00:41 | 38.11785 | -77.28390 | 12158 ft | 249 kts | 7° |
| 2026-04-21 00:41 | 38.13477 | -77.27858 | 11950 ft | 265 kts | 7° |
| 2026-04-21 00:42 | 38.15371 | -77.27274 | 11800 ft | 295 kts | 8° |
| 2026-04-21 00:42 | 38.16730 | -77.26808 | 11610 ft | 302 kts | 12° |
| 2026-04-21 00:42 | 38.18717 | -77.25923 | 11321 ft | 304 kts | 14° |
| 2026-04-21 00:42 | 38.20710 | -77.24952 | 10670 ft | 307 kts | 16° |
| 2026-04-21 00:43 | 38.22675 | -77.23975 | 9974 ft | 300 kts | 16° |
| 2026-04-21 00:43 | 38.24601 | -77.23021 | 9208 ft | 293 kts | 16° |
| 2026-04-21 00:43 | 38.26487 | -77.22097 | 8453 ft | 288 kts | 16° |
| 2026-04-21 00:43 | 38.28317 | -77.21209 | 7752 ft | 283 kts | 16° |
| 2026-04-21 00:44 | 38.30140 | -77.20328 | 6984 ft | 279 kts | 16° |
| 2026-04-21 00:44 | 38.31946 | -77.19461 | 6168 ft | 276 kts | 17° |
| 2026-04-21 00:44 | 38.33733 | -77.18605 | 5362 ft | 272 kts | 17° |
| 2026-04-21 00:45 | 38.37229 | -77.16931 | 3724 ft | 264 kts | 18° |
| 2026-04-21 00:45 | 38.38935 | -77.16114 | 3035 ft | 257 kts | 18° |
| 2026-04-21 00:45 | 38.40536 | -77.15345 | 2847 ft | 234 kts | 18° |
| 2026-04-21 00:45 | 38.41991 | -77.14645 | 2674 ft | 214 kts | 18° |
| 2026-04-21 00:46 | 38.43320 | -77.14007 | 2562 ft | 193 kts | 18° |
| 2026-04-21 00:46 | 38.44522 | -77.13429 | 2554 ft | 178 kts | 17° |
| 2026-04-21 00:46 | 38.45649 | -77.12889 | 2552 ft | 171 kts | 17° |
| 2026-04-21 00:46 | 38.46754 | -77.12361 | 2554 ft | 168 kts | 17° |
| 2026-04-21 00:47 | 38.47837 | -77.11843 | 2567 ft | 165 kts | 17° |
| 2026-04-21 00:47 | 38.48912 | -77.11328 | 2553 ft | 164 kts | 18° |
| 2026-04-21 00:47 | 38.49977 | -77.10818 | 2557 ft | 163 kts | 17° |
| 2026-04-21 00:47 | 38.51040 | -77.10309 | 2558 ft | 163 kts | 17° |
| 2026-04-21 00:48 | 38.52102 | -77.09800 | 2559 ft | 164 kts | 18° |
| 2026-04-21 00:48 | 38.53170 | -77.09287 | 2571 ft | 164 kts | 18° |
| 2026-04-21 00:48 | 38.54244 | -77.08771 | 2571 ft | 163 kts | 18° |
| 2026-04-21 00:48 | 38.55260 | -77.08281 | 2579 ft | 151 kts | 17° |
| 2026-04-21 00:49 | 38.56268 | -77.07797 | 2547 ft | 153 kts | 17° |
| 2026-04-21 00:49 | 38.57250 | -77.07325 | 2529 ft | 149 kts | 17° |
| 2026-04-21 00:49 | 38.58215 | -77.06861 | 2545 ft | 149 kts | 17° |
| 2026-04-21 00:49 | 38.59189 | -77.06393 | 2529 ft | 150 kts | 17° |
| 2026-04-21 00:50 | 38.60156 | -77.05928 | 2532 ft | 147 kts | 17° |
| 2026-04-21 00:50 | 38.61113 | -77.05466 | 2535 ft | 147 kts | 17° |
| 2026-04-21 00:50 | 38.62074 | -77.05004 | 2540 ft | 147 kts | 17° |
| 2026-04-21 00:50 | 38.63033 | -77.04542 | 2532 ft | 147 kts | 17° |
| 2026-04-21 00:51 | 38.63990 | -77.04081 | 2534 ft | 146 kts | 17° |
| 2026-04-21 00:51 | 38.64940 | -77.03623 | 2541 ft | 146 kts | 17° |
| 2026-04-21 00:51 | 38.65897 | -77.03161 | 2546 ft | 148 kts | 17° |
| 2026-04-21 00:51 | 38.66864 | -77.02695 | 2554 ft | 149 kts | 17° |
| 2026-04-21 00:52 | 38.67859 | -77.02291 | 2526 ft | 151 kts | 5° |
| 2026-04-21 00:52 | 38.68897 | -77.02284 | 2570 ft | 148 kts | 358° |
| 2026-04-21 00:52 | 38.69890 | -77.02290 | 2562 ft | 139 kts | 357° |
| 2026-04-21 00:52 | 38.70840 | -77.02347 | 2545 ft | 136 kts | 355° |
| 2026-04-21 00:53 | 38.71793 | -77.02429 | 2484 ft | 138 kts | 354° |
| 2026-04-21 00:53 | 38.72739 | -77.02520 | 2305 ft | 135 kts | 354° |
| 2026-04-21 00:53 | 38.73663 | -77.02613 | 2155 ft | 135 kts | 355° |
| 2026-04-21 00:53 | 38.74598 | -77.02707 | 1973 ft | 134 kts | 355° |
| 2026-04-21 00:54 | 38.75527 | -77.02801 | 1783 ft | 133 kts | 355° |
| 2026-04-21 00:54 | 38.76469 | -77.02896 | 1585 ft | 134 kts | 355° |
| 2026-04-21 00:54 | 38.77382 | -77.02989 | 1413 ft | 133 kts | 355° |
| 2026-04-21 00:54 | 38.78316 | -77.03083 | 1222 ft | 135 kts | 355° |
| 2026-04-21 00:55 | 38.79251 | -77.03178 | 1034 ft | 138 kts | 355° |
| 2026-04-21 00:55 | 38.80214 | -77.03275 | 834 ft | 138 kts | 354° |
| 2026-04-21 00:55 | 38.81168 | -77.03372 | 647 ft | 137 kts | 354° |
| 2026-04-21 00:55 | 38.82109 | -77.03467 | 468 ft | 136 kts | 354° |
| 2026-04-21 00:56 | 38.83050 | -77.03563 | 269 ft | 134 kts | 354° |
| 2026-04-21 00:56 | 38.83971 | -77.03656 | 110 ft | 132 kts | 353° |
| 2026-04-21 00:56 | 38.84885 | -77.03770 | 18 ft | 131 kts | 356° |
| 2026-04-21 00:56 | 38.85615 | -77.03836 | 21 ft | 84 kts | 355° |
| 2026-04-21 00:57 | 38.85922 | -77.03932 | 25 ft | 23 kts | 290° |
| 2026-04-21 00:57 | 38.85932 | -77.04015 | 23 ft | 0 kts | 263° |
| 2026-04-21 00:58 | 38.85928 | -77.04051 | 25 ft | 7 kts | 259° |
| 2026-04-21 00:58 | 38.85919 | -77.04135 | 23 ft | 12 kts | 266° |
| 2026-04-21 00:59 | 38.85892 | -77.04241 | 27 ft | 14 kts | 211° |
| 2026-04-21 00:59 | 38.85809 | -77.04192 | 25 ft | 14 kts | 143° |
| 2026-04-21 00:59 | 38.85735 | -77.04115 | 27 ft | 13 kts | 139° |
| 2026-04-21 00:59 | 38.85663 | -77.04047 | 28 ft | 13 kts | 166° |
| 2026-04-21 01:00 | 38.85574 | -77.04035 | 23 ft | 13 kts | 173° |
| 2026-04-21 01:00 | 38.85488 | -77.04012 | 21 ft | 12 kts | 167° |
| 2026-04-21 01:00 | 38.85403 | -77.04009 | 21 ft | 12 kts | 194° |
| 2026-04-21 01:00 | 38.85337 | -77.04069 | 22 ft | 12 kts | 228° |
| 2026-04-21 01:01 | 38.85313 | -77.04115 | 22 ft | 0 kts | 256° |
| 2026-04-21 01:01 | 38.85322 | -77.04138 | 22 ft | 4 kts | 317° |
| 2026-04-21 01:01 | 38.85346 | -77.04148 | 10 ft | 4 kts | 345° |
| 2026-04-21 01:01 | 38.85360 | -77.04153 | 38 ft | 2 kts | 347° |
| 2026-04-21 01:02 | 38.85363 | -77.04154 | 35 ft | 0 kts | 347° |